Time;durP1;ratioP1;P1;durP2;ratioP2;P2;SDS_P1;SDS_P2;PMS_P1;PMS_P2;Temp;Humidity;BMP_temperature;BMP_pressure;BME280_temperature;BME280_humidity;BME280_pressure;Samples;Min_cycle;Max_cycle;Signal;HPM_P1;HPM_P2
2023/02/26 00:00:00;;;;;;;;;10.67;8.00;;;;;6.06;49.40;101437.72;2005004;27;3481490;-74
2023/02/26 00:01:13;;;;;;;;;10.00;6.00;;;;;6.05;49.57;101438.56;2040356;27;3480842;-74
2023/02/26 00:02:26;;;;;;;;;10.17;6.67;;;;;6.03;49.32;101436.84;2051812;28;2760674;-73
2023/02/26 00:03:40;;;;;;;;;12.00;8.67;;;;;6.01;49.79;101434.25;2050247;28;2764867;-74
2023/02/26 00:04:50;;;;;;;;;9.67;6.67;;;;;6.01;49.61;101441.19;2017842;28;2752446;-74
2023/02/26 00:06:01;;;;;;;;;12.33;7.67;;;;;6.00;49.52;101445.53;2031889;28;3466944;-74
2023/02/26 00:07:12;;;;;;;;;13.67;8.33;;;;;6.00;49.46;101450.75;2025526;28;2763849;-74
2023/02/26 00:08:23;;;;;;;;;8.67;7.67;;;;;5.99;49.33;101464.69;2037661;28;3471113;-74
2023/02/26 00:09:35;;;;;;;;;10.00;8.75;;;;;5.97;49.48;101459.47;2049399;27;2748181;-74
2023/02/26 00:10:48;;;;;;;;;6.50;6.50;;;;;5.95;49.03;101455.16;2052081;27;2745053;-73
2023/02/26 00:12:01;;;;;;;;;8.00;8.00;;;;;5.92;49.01;101460.34;2050718;27;2741924;-73
2023/02/26 00:13:15;;;;;;;;;8.50;5.00;;;;;5.87;49.22;101456.88;2051172;28;2750308;-73
2023/02/26 00:14:27;;;;;;;;;10.00;7.75;;;;;5.85;49.44;101464.72;2029528;28;1837940;-73
2023/02/26 00:15:37;;;;;;;;;13.00;8.67;;;;;5.82;49.21;101455.16;2008560;28;3484611;-73
2023/02/26 00:17:06;;;;;;;;;12.50;11.25;;;;;5.80;49.48;101458.66;2040076;28;1842011;-73
2023/02/26 00:18:18;;;;;;;;;14.00;8.50;;;;;5.78;49.79;101456.03;2030496;28;1852321;-74
2023/02/26 00:19:31;;;;;;;;;5.00;3.33;;;;;5.77;49.34;101463.84;2048613;28;2750265;-74
2023/02/26 00:20:45;;;;;;;;;9.00;7.67;;;;;5.77;49.36;101466.47;2051835;28;2746123;-74
2023/02/26 00:21:55;;;;;;;;;8.67;7.33;;;;;5.73;49.41;101468.19;2024341;27;2733664;-74
2023/02/26 00:23:13;;;;;;;;;6.75;6.00;;;;;5.71;49.55;101470.81;2051123;27;2730477;-74
2023/02/26 00:24:24;;;;;;;;;9.50;9.50;;;;;5.71;49.13;101472.53;2018106;27;1819001;-74
2023/02/26 00:25:37;;;;;;;;;9.50;6.67;;;;;5.69;48.98;101464.72;2051695;27;2750276;-74
2023/02/26 00:26:50;;;;;;;;;9.17;9.17;;;;;5.67;49.40;101468.22;2052325;28;2759640;-74
2023/02/26 00:28:01;;;;;;;;;7.33;7.33;;;;;5.65;48.83;101473.44;2002881;28;2735765;-74
2023/02/26 00:29:12;;;;;;;;;12.00;10.00;;;;;5.63;48.95;101470.81;2030809;28;3504424;-74
2023/02/26 00:30:23;;;;;;;;;11.33;9.67;;;;;5.61;49.25;101475.16;2031832;27;3487759;-74
2023/02/26 00:31:34;;;;;;;;;10.67;7.00;;;;;5.61;49.14;101471.69;2034148;27;2756518;-74
2023/02/26 00:32:46;;;;;;;;;10.00;7.50;;;;;5.58;49.54;101477.75;2051275;27;2749231;-74
2023/02/26 00:33:57;;;;;;;;;13.00;9.00;;;;;5.55;49.02;101480.41;2002752;27;3486690;-74
2023/02/26 00:35:12;;;;;;;;;12.00;9.00;;;;;5.52;49.09;101490.81;2026270;27;2758729;-74
2023/02/26 00:36:41;;;;;;;;;11.00;6.67;;;;;5.48;49.17;101482.09;2040863;27;1831496;-74
2023/02/26 00:38:00;;;;;;;;;8.33;8.33;;;;;5.47;49.22;101482.13;2031436;27;2735709;-74
2023/02/26 00:39:29;;;;;;;;;7.00;7.00;;;;;5.47;49.30;101490.81;2025645;27;2746152;-74
2023/02/26 00:40:47;;;;;;;;;8.67;8.67;;;;;5.45;49.13;101491.69;2052792;27;2741963;-74
2023/02/26 00:41:58;;;;;;;;;11.67;6.67;;;;;5.45;49.33;101496.91;2016197;28;3487711;-74
2023/02/26 00:43:15;;;;;;;;;7.00;4.67;;;;;5.43;49.51;101503.84;2031792;28;2747143;-74
2023/02/26 00:44:29;;;;;;;;;9.00;6.00;;;;;5.39;49.52;101493.41;2050573;28;2747120;-74
2023/02/26 00:45:51;;;;;;;;;9.33;9.00;;;;;5.42;49.17;101499.50;2018853;28;2739855;-74
2023/02/26 00:47:13;;;;;;;;;12.67;9.33;;;;;5.40;49.15;101510.81;2019488;27;2770652;-74
2023/02/26 00:48:35;;;;;;;;;8.17;7.50;;;;;5.39;49.21;101501.25;2045192;28;2736736;-74
2023/02/26 00:50:04;;;;;;;;;9.00;9.00;;;;;5.37;49.29;101505.59;2024588;28;3453373;-74
2023/02/26 00:51:25;;;;;;;;;10.33;8.67;;;;;5.37;48.94;101505.59;2025623;28;3475249;-74
2023/02/26 00:53:09;;;;;;;;;10.33;9.50;;;;;5.34;49.41;101502.97;2052835;27;2751775;-74
2023/02/26 00:54:25;;;;;;;;;10.67;8.67;;;;;5.33;49.28;101508.19;2001940;28;2753445;-74
2023/02/26 00:55:35;;;;;;;;;12.00;10.67;;;;;5.31;49.29;101505.56;2024332;28;3511673;-74
2023/02/26 00:56:51;;;;;;;;;7.67;6.00;;;;;5.30;49.37;101503.84;2049961;28;2746110;-74
2023/02/26 00:58:05;;;;;;;;;5.17;4.00;;;;;5.29;49.25;101507.31;2030414;28;2754436;-74
2023/02/26 00:59:19;;;;;;;;;6.67;6.17;;;;;5.28;49.21;101502.97;2044146;28;2738803;-74
2023/02/26 01:00:31;;;;;;;;;10.25;9.50;;;;;5.26;49.28;101504.72;2037720;28;1837749;-74
2023/02/26 01:01:44;;;;;;;;;10.50;10.33;;;;;5.24;49.04;101503.81;2052755;28;2757585;-73
2023/02/26 01:02:58;;;;;;;;;0.00;0.00;;;;;5.21;49.59;101504.69;2030743;28;2725294;-73
2023/02/26 01:04:10;;;;;;;;;13.00;10.00;;;;;5.20;49.19;101512.50;2024918;28;3511713;-74
2023/02/26 01:05:24;;;;;;;;;9.00;6.83;;;;;5.18;49.47;101513.34;2053365;27;2736728;-74
2023/02/26 01:06:43;;;;;;;;;11.33;8.00;;;;;5.16;49.54;101509.88;2049791;28;2760677;-74
2023/02/26 01:08:14;;;;;;;;;13.00;10.67;;;;;5.14;48.94;101506.41;1994058;28;3511713;-74
2023/02/26 01:09:30;;;;;;;;;12.75;9.00;;;;;5.13;49.25;101509.91;2031365;28;1845106;-73
2023/02/26 01:10:41;;;;;;;;;18.00;11.00;;;;;5.11;49.07;101509.00;2024135;27;3539820;-73
2023/02/26 01:11:55;;;;;;;;;7.00;7.00;;;;;5.08;48.80;101522.03;2017216;28;2733692;-73
2023/02/26 01:13:06;;;;;;;;;11.33;9.33;;;;;5.08;49.44;101509.00;2024177;28;2770149;-74
2023/02/26 01:14:19;;;;;;;;;13.20;8.60;;;;;5.07;49.01;101510.75;2050932;27;2756530;-74
2023/02/26 01:15:32;;;;;;;;;7.17;6.83;;;;;5.07;49.04;101518.56;2052779;28;2737821;-74
2023/02/26 01:16:52;;;;;;;;;13.00;9.67;;;;;5.05;48.84;101511.59;2024988;27;2775306;-74
2023/02/26 01:18:13;;;;;;;;;9.50;8.50;;;;;5.03;49.28;101513.34;2052653;28;2750284;-74
2023/02/26 01:19:32;;;;;;;;;11.00;8.67;;;;;5.02;49.31;101511.59;2019651;28;2764892;-73
2023/02/26 01:20:53;;;;;;;;;11.33;8.83;;;;;5.01;49.37;101512.47;2051904;28;2760689;-74
2023/02/26 01:22:32;;;;;;;;;7.83;7.33;;;;;5.00;49.50;101519.41;2028744;27;2748253;-74
2023/02/26 01:23:50;;;;;;;;;10.83;7.33;;;;;4.99;49.34;101519.41;2051979;28;2763869;-74
2023/02/26 01:25:07;;;;;;;;;5.50;4.83;;;;;4.98;49.17;101512.44;2052170;28;2750342;-74
2023/02/26 01:26:25;;;;;;;;;10.67;10.00;;;;;4.97;49.72;101510.69;2024174;28;3506905;-74
2023/02/26 01:27:39;;;;;;;;;8.83;6.50;;;;;4.96;49.55;101512.47;2052387;28;2733634;-74
2023/02/26 01:28:52;;;;;;;;;9.33;7.50;;;;;4.95;48.79;101511.59;2051144;27;2756534;-74
2023/02/26 01:30:06;;;;;;;;;10.50;6.00;;;;;4.94;49.26;101512.44;2051764;28;2750291;-74
2023/02/26 01:31:35;;;;;;;;;6.00;5.17;;;;;4.94;49.22;101515.03;2028601;27;2740887;-74
2023/02/26 01:33:11;;;;;;;;;8.00;7.33;;;;;4.95;49.20;101521.13;2025628;28;2728379;-74
2023/02/26 01:34:38;;;;;;;;;7.50;6.50;;;;;4.93;48.95;101522.84;2052607;28;2734656;-74
2023/02/26 01:36:19;;;;;;;;;6.67;6.67;;;;;4.90;48.81;101517.63;2052551;28;2737757;-74
2023/02/26 01:37:55;;;;;;;;;12.67;6.00;;;;;4.90;49.19;101522.84;2025011;28;2758147;-74
2023/02/26 01:39:28;;;;;;;;;9.17;8.00;;;;;4.91;49.43;101516.78;2050391;27;2752360;-74
2023/02/26 01:41:38;;;;;;;;;8.33;4.83;;;;;4.90;49.00;101515.91;2051854;28;2747164;-74
2023/02/26 01:42:57;;;;;;;;;9.83;7.00;;;;;4.88;48.94;101527.19;2035227;28;2742985;-74
2023/02/26 01:44:25;;;;;;;;;6.83;6.83;;;;;4.87;49.04;101521.09;2035779;28;2744010;-74
2023/02/26 01:46:04;;;;;;;;;5.83;5.83;;;;;4.86;49.24;101519.38;2036736;28;2739943;-74
2023/02/26 01:47:32;;;;;;;;;2.50;2.33;;;;;4.84;49.12;101527.16;2029473;28;2741936;-74
2023/02/26 01:48:50;;;;;;;;;10.83;6.17;;;;;4.82;48.86;101528.00;2044019;28;2765921;-74
2023/02/26 01:50:33;;;;;;;;;7.83;6.83;;;;;4.81;49.01;101518.47;2052739;27;2730467;-74
2023/02/26 01:51:54;;;;;;;;;5.67;5.17;;;;;4.80;49.08;101521.94;2051187;28;2747844;-74
2023/02/26 01:53:20;;;;;;;;;8.67;5.33;;;;;4.79;48.97;101525.44;2053277;27;2746130;-74
2023/02/26 01:54:37;;;;;;;;;9.17;8.00;;;;;4.77;48.98;101519.31;2052912;28;2733736;-74
2023/02/26 01:56:14;;;;;;;;;9.83;7.17;;;;;4.75;49.20;101532.34;2046262;28;2742966;-74
2023/02/26 01:57:27;;;;;;;;;10.17;6.00;;;;;4.72;49.29;101527.97;2052515;27;2756542;-74
2023/02/26 01:58:40;;;;;;;;;6.17;5.50;;;;;4.70;49.33;101529.72;2057801;27;2746079;-74
2023/02/26 01:59:54;;;;;;;;;3.17;2.83;;;;;4.68;48.91;101530.56;2044907;28;2752430;-74
2023/02/26 02:01:07;;;;;;;;;8.83;7.50;;;;;4.68;49.30;101535.78;2051996;28;2740910;-74
2023/02/26 02:02:24;;;;;;;;;8.00;5.33;;;;;4.68;49.47;101535.78;2052194;27;2745080;-74
2023/02/26 02:03:38;;;;;;;;;7.67;5.67;;;;;4.67;49.29;101540.13;2025308;28;2750358;-74
2023/02/26 02:04:52;;;;;;;;;5.67;5.67;;;;;4.66;48.96;101537.50;2052755;28;2735682;-74
2023/02/26 02:06:10;;;;;;;;;5.00;5.00;;;;;4.65;49.28;101536.63;2049470;28;2745060;-74
2023/02/26 02:07:24;;;;;;;;;8.17;4.00;;;;;4.64;49.48;101542.72;2049686;28;2746107;-74
2023/02/26 02:08:37;;;;;;;;;6.67;4.00;;;;;4.64;49.23;101542.72;2052033;27;2752368;-74
2023/02/26 02:09:50;;;;;;;;;9.83;5.83;;;;;4.62;49.10;101534.00;2052404;28;2746135;-74
2023/02/26 02:11:08;;;;;;;;;5.50;5.00;;;;;4.61;49.42;101534.88;2051015;27;2742958;-74
2023/02/26 02:12:31;;;;;;;;;9.33;6.33;;;;;4.59;49.13;101540.06;2057998;27;2751319;-74
2023/02/26 02:13:59;;;;;;;;;9.83;5.67;;;;;4.60;49.27;101539.22;2051717;27;2753868;-74
2023/02/26 02:15:19;;;;;;;;;11.33;8.17;;;;;4.61;49.57;101545.31;2053537;27;2759643;-74
2023/02/26 02:17:01;;;;;;;;;8.67;6.00;;;;;4.60;49.14;101533.13;2016934;28;3459596;-74
2023/02/26 02:18:22;;;;;;;;;8.17;8.00;;;;;4.57;49.39;101531.38;2059365;27;2745073;-74
2023/02/26 02:19:54;;;;;;;;;7.67;5.00;;;;;4.56;49.24;101541.81;2058096;27;2742973;-74
2023/02/26 02:21:16;;;;;;;;;6.17;4.50;;;;;4.53;48.95;101534.84;2053291;27;2735710;-74
2023/02/26 02:22:47;;;;;;;;;5.67;5.67;;;;;4.52;49.16;101540.91;2049561;27;2740877;-74
2023/02/26 02:24:13;;;;;;;;;3.33;3.00;;;;;4.52;49.38;101545.25;2053334;28;2742290;-74
2023/02/26 02:25:26;;;;;;;;;6.67;5.00;;;;;4.50;49.29;101540.91;2024684;27;3461746;-74
2023/02/26 02:27:08;;;;;;;;;5.33;5.33;;;;;4.50;49.29;101543.50;2059077;27;2738914;-74
2023/02/26 02:28:58;;;;;;;;;3.33;3.33;;;;;4.49;49.23;101541.75;2044023;28;2753401;-74
2023/02/26 02:30:29;;;;;;;;;6.83;5.00;;;;;4.51;49.27;101541.78;2044389;28;2745089;-74
2023/02/26 02:31:48;;;;;;;;;3.50;3.33;;;;;4.50;49.11;101543.50;2052300;27;2752332;-74
2023/02/26 02:33:25;;;;;;;;;5.17;5.17;;;;;4.52;48.94;101542.66;2052925;27;2746089;-74
2023/02/26 02:35:01;;;;;;;;;8.00;5.83;;;;;4.50;48.98;101538.31;2049805;28;2731512;-74
2023/02/26 02:36:35;;;;;;;;;8.00;5.00;;;;;4.52;49.40;101540.06;2043662;28;2732581;-74
2023/02/26 02:38:15;;;;;;;;;8.00;4.50;;;;;4.49;49.52;101549.56;2052092;28;2747131;-74
2023/02/26 02:39:34;;;;;;;;;4.83;4.00;;;;;4.47;48.94;101545.25;2051871;28;2750257;-74
2023/02/26 02:40:53;;;;;;;;;4.33;4.33;;;;;4.44;48.77;101543.50;2050104;28;2746586;-74
2023/02/26 02:42:14;;;;;;;;;4.00;3.33;;;;;4.42;49.45;101547.78;2044542;28;2740970;-74
2023/02/26 02:43:31;;;;;;;;;9.67;4.00;;;;;4.40;49.46;101549.50;2025402;27;2761858;-74
2023/02/26 02:45:00;;;;;;;;;6.17;4.33;;;;;4.41;49.25;101542.59;2048825;27;2741924;-74
2023/02/26 02:46:27;;;;;;;;;6.50;5.00;;;;;4.39;49.20;101545.19;2049886;28;2735139;-74
2023/02/26 02:47:46;;;;;;;;;4.67;4.67;;;;;4.38;49.25;101549.50;2051623;28;2746110;-74
2023/02/26 02:49:05;;;;;;;;;6.00;5.00;;;;;4.37;49.53;101542.56;2052628;27;2746105;-74
2023/02/26 02:50:27;;;;;;;;;5.00;5.00;;;;;4.36;49.26;101547.75;2051968;27;2746109;-74
2023/02/26 02:51:48;;;;;;;;;6.50;5.83;;;;;4.36;48.77;101545.16;2049769;27;2748166;-74
2023/02/26 02:53:09;;;;;;;;;4.00;4.00;;;;;4.34;48.84;101542.56;2043025;28;2754442;-74
2023/02/26 02:54:55;;;;;;;;;5.17;5.17;;;;;4.32;49.39;101551.22;2050681;28;2746086;-74
2023/02/26 02:56:16;;;;;;;;;8.00;7.00;;;;;4.28;49.26;101552.91;2043981;28;2746109;-74
2023/02/26 02:57:34;;;;;;;;;8.67;6.67;;;;;4.23;49.14;101558.09;2017223;28;3470024;-74
2023/02/26 02:58:56;;;;;;;;;7.67;4.50;;;;;4.21;49.46;101556.34;2045884;28;2746129;-74
2023/02/26 03:00:12;;;;;;;;;5.17;4.00;;;;;4.19;49.43;101558.94;2045370;28;2748166;-74
2023/02/26 03:01:27;;;;;;;;;4.00;4.00;;;;;4.16;49.19;101564.13;2052249;28;2738819;-74
2023/02/26 03:02:54;;;;;;;;;5.67;4.33;;;;;4.15;49.23;101560.63;2053648;27;2738800;-74
2023/02/26 03:04:10;;;;;;;;;4.17;4.17;;;;;4.11;49.04;101545.00;2051845;27;2744023;-74
2023/02/26 03:05:24;;;;;;;;;4.83;4.00;;;;;4.10;49.23;101557.13;2051710;28;2754416;-74
2023/02/26 03:06:38;;;;;;;;;5.17;4.00;;;;;4.08;49.45;101557.97;2051722;28;2739888;-74
2023/02/26 03:08:13;;;;;;;;;4.83;4.17;;;;;4.07;48.87;101562.31;2051501;28;2750253;-74
2023/02/26 03:09:26;;;;;;;;;7.67;4.50;;;;;4.04;49.13;101555.38;2050015;28;2748193;-74
2023/02/26 03:10:37;;;;;;;;;9.33;5.00;;;;;4.03;49.33;101564.03;2018468;28;2762763;-74
2023/02/26 03:11:51;;;;;;;;;7.17;6.17;;;;;4.03;49.43;101566.63;2059942;27;2735689;-74
2023/02/26 03:13:04;;;;;;;;;4.67;3.00;;;;;4.02;49.58;101566.63;2052510;27;2754436;-74
2023/02/26 03:14:18;;;;;;;;;5.17;3.83;;;;;4.01;48.85;101567.47;2044644;28;2744035;-74
2023/02/26 03:15:52;;;;;;;;;9.00;3.33;;;;;3.99;49.34;101567.47;2053049;27;2741916;-74
2023/02/26 03:17:18;;;;;;;;;3.67;3.67;;;;;3.98;49.63;101570.91;2028301;27;2754444;-74
2023/02/26 03:18:57;;;;;;;;;4.00;3.00;;;;;3.97;49.99;101569.19;2052645;28;2737762;-74
2023/02/26 03:20:24;;;;;;;;;6.00;4.50;;;;;3.98;49.87;101567.44;2050862;27;2745052;-74
2023/02/26 03:22:03;;;;;;;;;9.33;4.17;;;;;3.97;49.45;101574.41;2050049;28;2750356;-74
2023/02/26 03:23:34;;;;;;;;;2.50;2.33;;;;;3.97;49.29;101579.59;2029649;27;2750280;-74
2023/02/26 03:24:54;;;;;;;;;4.00;4.00;;;;;3.98;49.39;101580.44;2051939;27;2754423;-74
2023/02/26 03:26:39;;;;;;;;;4.00;3.50;;;;;3.97;49.87;101581.31;2051353;27;2752364;-74
2023/02/26 03:28:08;;;;;;;;;7.67;4.00;;;;;3.98;49.21;101581.31;2049033;28;2752359;-74
2023/02/26 03:30:01;;;;;;;;;4.17;2.83;;;;;3.97;49.24;101582.19;2052338;27;2750254;-74
2023/02/26 03:31:21;;;;;;;;;8.33;5.50;;;;;3.96;49.63;101593.44;2043171;28;2746087;-74
2023/02/26 03:32:56;;;;;;;;;7.33;3.17;;;;;3.96;49.46;101585.66;2042634;28;2741943;-74
2023/02/26 03:34:32;;;;;;;;;7.33;6.17;;;;;3.97;48.97;101582.19;2047018;27;2745045;-74
2023/02/26 03:36:17;;;;;;;;;4.83;3.67;;;;;3.98;49.44;101586.53;2051004;28;2741959;-74
2023/02/26 03:37:45;;;;;;;;;4.67;4.00;;;;;4.01;49.41;101586.56;2048530;28;2754416;-74
2023/02/26 03:39:11;;;;;;;;;4.50;4.50;;;;;4.01;49.86;101577.88;2059744;27;2750291;-74
2023/02/26 03:40:29;;;;;;;;;4.50;4.00;;;;;4.03;49.84;101586.56;2044443;28;2741933;-74
2023/02/26 03:41:59;;;;;;;;;5.17;2.83;;;;;4.04;49.43;101580.50;2044016;28;2742969;-74
2023/02/26 03:43:19;;;;;;;;;4.67;2.67;;;;;4.07;49.82;101593.56;2052555;28;2739287;-74
2023/02/26 03:44:56;;;;;;;;;3.67;3.00;;;;;4.08;49.68;101587.47;2050404;28;2729932;-74
2023/02/26 03:46:15;;;;;;;;;3.00;3.00;;;;;4.08;49.64;101592.69;2047605;28;2750260;-74
2023/02/26 03:47:30;;;;;;;;;6.83;3.33;;;;;4.08;49.67;101590.06;2046803;28;2744046;-74
2023/02/26 03:48:47;;;;;;;;;3.83;3.83;;;;;4.09;49.24;101594.44;2050410;28;2746154;-74
2023/02/26 03:50:15;;;;;;;;;3.67;2.00;;;;;4.10;49.78;101592.72;2048613;28;2731508;-74
2023/02/26 03:51:29;;;;;;;;;6.50;3.50;;;;;4.11;49.77;101594.44;2045535;28;2750281;-74
2023/02/26 03:52:46;;;;;;;;;3.83;3.00;;;;;4.12;49.31;101598.78;2051777;28;2741001;-74
2023/02/26 03:54:06;;;;;;;;;4.50;4.00;;;;;4.13;49.77;101596.19;2060012;27;2737785;-74
2023/02/26 03:55:33;;;;;;;;;4.83;3.83;;;;;4.15;49.50;101590.97;2057171;27;2749223;-74
2023/02/26 03:56:47;;;;;;;;;5.83;3.17;;;;;4.16;49.64;101601.44;2044390;28;2730481;-74
2023/02/26 03:58:01;;;;;;;;;3.33;3.33;;;;;4.16;49.42;101600.53;2050030;28;2750261;-74
2023/02/26 03:59:16;;;;;;;;;4.17;3.17;;;;;4.16;49.46;101604.03;2053319;28;2744003;-74
2023/02/26 04:00:32;;;;;;;;;5.83;4.83;;;;;4.15;49.25;101604.88;2053147;28;2747129;-74
2023/02/26 04:01:58;;;;;;;;;6.50;3.67;;;;;4.16;49.83;101598.81;2051930;28;2738806;-74
2023/02/26 04:03:18;;;;;;;;;5.00;4.00;;;;;4.18;49.37;101597.94;2044888;28;2745121;-74
2023/02/26 04:04:51;;;;;;;;;5.67;3.67;;;;;4.19;49.21;101602.31;2050834;28;2752339;-74
2023/02/26 04:06:04;;;;;;;;;4.00;3.00;;;;;4.19;49.33;101604.91;2047675;28;2733646;-74
2023/02/26 04:07:19;;;;;;;;;4.50;3.33;;;;;4.21;49.86;101605.78;2048209;28;2747156;-74
2023/02/26 04:08:32;;;;;;;;;7.83;2.67;;;;;4.21;49.35;101603.19;2053230;27;2752364;-74
2023/02/26 04:09:48;;;;;;;;;10.33;4.83;;;;;4.22;49.61;101600.59;2052976;27;2771094;-74
2023/02/26 04:11:17;;;;;;;;;4.00;4.00;;;;;4.22;49.64;101608.38;2051499;27;2754435;-74
2023/02/26 04:12:31;;;;;;;;;4.50;3.83;;;;;4.21;49.64;101614.47;2052384;28;2736727;-74
2023/02/26 04:13:44;;;;;;;;;5.67;4.00;;;;;4.22;49.06;101610.16;2050944;28;2754499;-74
2023/02/26 04:14:58;;;;;;;;;6.17;4.50;;;;;4.18;49.52;101611.84;2047730;28;2739840;-74
2023/02/26 04:16:12;;;;;;;;;5.33;4.00;;;;;4.15;49.22;101610.06;2053059;28;2746094;-74
2023/02/26 04:17:26;;;;;;;;;5.00;2.00;;;;;4.15;49.40;101609.19;2052152;28;2748165;-74
2023/02/26 04:18:40;;;;;;;;;5.00;3.00;;;;;4.14;49.58;101610.06;2051922;28;2733627;-74
2023/02/26 04:19:53;;;;;;;;;6.83;3.00;;;;;4.13;49.14;101610.94;2048172;28;2750356;-74
2023/02/26 04:21:06;;;;;;;;;4.17;3.17;;;;;4.12;49.32;101620.50;2044005;28;2746122;-74
2023/02/26 04:22:19;;;;;;;;;5.17;3.00;;;;;4.11;49.29;101616.13;2046808;28;2722165;-74
2023/02/26 04:23:32;;;;;;;;;4.17;2.33;;;;;4.11;49.59;101623.06;2051123;28;2741936;-74
2023/02/26 04:24:46;;;;;;;;;6.33;3.00;;;;;4.09;49.95;101624.78;2050766;28;2754424;-73
2023/02/26 04:25:59;;;;;;;;;2.83;2.00;;;;;4.09;49.56;101627.38;2045799;28;2736766;-74
2023/02/26 04:27:12;;;;;;;;;3.00;3.00;;;;;4.08;49.34;101628.22;2045915;28;2734625;-74
2023/02/26 04:28:25;;;;;;;;;4.17;3.17;;;;;4.10;49.62;101629.13;2053123;28;2740914;-74
2023/02/26 04:29:38;;;;;;;;;3.83;2.00;;;;;4.10;49.35;101629.97;2052819;28;2752364;-74
2023/02/26 04:30:52;;;;;;;;;4.00;2.83;;;;;4.12;49.92;101627.41;2053092;27;2748202;-74
2023/02/26 04:32:05;;;;;;;;;2.83;2.50;;;;;4.13;49.58;101622.22;2054161;27;2739829;-74
2023/02/26 04:33:18;;;;;;;;;7.67;4.67;;;;;4.12;49.39;101619.59;2053315;27;2750307;-74
2023/02/26 04:34:31;;;;;;;;;2.50;2.50;;;;;4.12;49.26;101627.41;2054675;27;2735675;-74
2023/02/26 04:35:45;;;;;;;;;2.50;2.50;;;;;4.11;49.34;101621.34;2053008;27;2753740;-74
2023/02/26 04:36:58;;;;;;;;;7.50;3.83;;;;;4.11;49.38;101625.66;2048275;28;2746165;-74
2023/02/26 04:38:11;;;;;;;;;4.17;3.00;;;;;4.10;49.30;101623.94;2052902;28;2739856;-74
2023/02/26 04:39:24;;;;;;;;;3.17;3.00;;;;;4.09;48.91;101629.97;2053468;28;2737765;-74
2023/02/26 04:40:37;;;;;;;;;3.83;3.00;;;;;4.10;48.96;101631.75;2052457;28;2739883;-74
2023/02/26 04:41:51;;;;;;;;;3.67;2.83;;;;;4.10;49.74;101636.94;2053338;28;2736716;-74
2023/02/26 04:43:04;;;;;;;;;5.50;4.00;;;;;4.11;49.21;101630.84;2052871;28;2741944;-74
2023/02/26 04:44:17;;;;;;;;;5.00;3.00;;;;;4.12;49.86;101630.00;2051480;27;2744067;-74
2023/02/26 04:45:31;;;;;;;;;5.00;3.00;;;;;4.12;49.84;101633.50;2045422;28;2750642;-74
2023/02/26 04:46:44;;;;;;;;;5.50;4.50;;;;;4.14;49.90;101636.09;2050802;27;2744007;-74
2023/02/26 04:47:57;;;;;;;;;2.17;2.17;;;;;4.16;49.50;101631.78;2051861;28;2737781;-74
2023/02/26 04:49:10;;;;;;;;;4.00;2.83;;;;;4.17;49.70;101638.75;2054915;27;2729923;-74
2023/02/26 04:50:23;;;;;;;;;3.67;2.83;;;;;4.18;49.36;101640.47;2053561;27;2736726;-74
2023/02/26 04:51:37;;;;;;;;;5.67;3.00;;;;;4.19;49.32;101647.41;2052686;28;2742318;-74
2023/02/26 04:52:50;;;;;;;;;4.33;2.33;;;;;4.17;49.01;101638.75;2052945;28;2732581;-74
2023/02/26 04:54:03;;;;;;;;;2.67;2.67;;;;;4.17;49.16;101643.94;2053844;28;2733591;-74
2023/02/26 04:55:16;;;;;;;;;3.67;3.00;;;;;4.15;49.41;101650.84;2052666;28;2746191;-74
2023/02/26 04:56:31;;;;;;;;;4.17;4.00;;;;;4.15;49.53;101656.91;2051800;28;2747156;-74
2023/02/26 04:57:41;;;;;;;;;9.33;4.00;;;;;4.14;49.11;101646.50;2021102;28;3485654;-74
2023/02/26 04:58:52;;;;;;;;;1.00;1.00;;;;;4.11;49.35;101655.16;2053334;27;2733587;-74
2023/02/26 05:00:06;;;;;;;;;7.17;3.33;;;;;4.10;49.39;101649.94;2030830;27;2739852;-74
2023/02/26 05:01:19;;;;;;;;;3.17;3.17;;;;;4.09;49.68;101666.41;2053556;27;2734661;-74
2023/02/26 05:02:33;;;;;;;;;2.33;2.33;;;;;4.09;49.69;101648.19;2053027;28;2733606;-74
2023/02/26 05:03:46;;;;;;;;;5.33;2.67;;;;;4.05;49.04;101650.75;2052480;27;2734137;-74
2023/02/26 05:04:59;;;;;;;;;5.50;3.17;;;;;4.04;49.33;101651.63;2051933;27;2739868;-74
2023/02/26 05:06:12;;;;;;;;;6.67;3.00;;;;;4.03;49.53;101654.19;2053687;27;2739852;-74
2023/02/26 05:07:26;;;;;;;;;3.50;3.50;;;;;4.03;49.46;101651.59;2053398;27;2744034;-74
2023/02/26 05:08:41;;;;;;;;;4.67;3.67;;;;;4.01;49.59;101650.72;2052151;27;2746527;-74
2023/02/26 05:09:54;;;;;;;;;5.50;5.00;;;;;4.00;49.90;101659.41;2044201;28;2747124;-74
2023/02/26 05:11:09;;;;;;;;;2.17;2.17;;;;;3.98;49.77;101651.56;2051891;28;2745416;-74
2023/02/26 05:12:22;;;;;;;;;4.00;4.00;;;;;3.98;49.83;101659.38;2052701;28;2753389;-74
2023/02/26 05:13:36;;;;;;;;;6.00;4.67;;;;;3.98;49.80;101655.88;2051441;28;2752403;-74
2023/02/26 05:14:49;;;;;;;;;4.33;2.67;;;;;3.94;49.48;101662.81;2052436;28;2741954;-74
2023/02/26 05:16:03;;;;;;;;;4.00;4.00;;;;;3.92;49.31;101656.72;2052013;28;2753398;-74
2023/02/26 05:17:16;;;;;;;;;4.67;4.00;;;;;3.91;49.91;101660.16;2051928;28;2754434;-74
2023/02/26 05:18:29;;;;;;;;;5.17;3.17;;;;;3.88;49.52;101658.41;2053085;27;2754939;-74
2023/02/26 05:19:42;;;;;;;;;6.50;5.33;;;;;3.88;49.89;101649.72;2052571;28;2746122;-74
2023/02/26 05:20:54;;;;;;;;;8.00;4.00;;;;;3.86;49.77;101654.91;2017006;28;2749231;-74
2023/02/26 05:22:07;;;;;;;;;4.00;4.00;;;;;3.87;50.17;101658.41;2038248;28;2743009;-74
2023/02/26 05:23:21;;;;;;;;;4.67;3.33;;;;;3.87;49.66;101661.00;2053443;27;2738810;-74
2023/02/26 05:24:35;;;;;;;;;3.83;3.17;;;;;3.87;49.49;101659.28;2050805;27;2754466;-74
2023/02/26 05:25:48;;;;;;;;;4.67;4.00;;;;;3.87;50.32;101661.00;2046134;28;2752364;-74
2023/02/26 05:27:01;;;;;;;;;3.33;3.00;;;;;3.87;49.57;101664.47;2051723;28;2732561;-74
2023/02/26 05:28:15;;;;;;;;;3.00;3.00;;;;;3.88;50.17;101662.72;2037833;28;2741928;-74
2023/02/26 05:29:28;;;;;;;;;4.83;3.00;;;;;3.87;49.74;101654.06;2049530;28;2734649;-74
2023/02/26 05:30:42;;;;;;;;;4.50;3.17;;;;;3.88;49.61;101662.72;2052907;28;2746091;-74
2023/02/26 05:31:55;;;;;;;;;4.00;4.00;;;;;3.89;50.11;101652.34;2052734;27;2752359;-74
2023/02/26 05:33:08;;;;;;;;;4.17;2.67;;;;;3.89;49.68;101647.16;2053773;27;2731539;-74
2023/02/26 05:34:22;;;;;;;;;5.00;4.67;;;;;3.89;49.68;101651.47;2051952;27;2750257;-74
2023/02/26 05:35:35;;;;;;;;;6.50;3.83;;;;;3.90;50.17;101651.47;2044824;28;2752344;-74
2023/02/26 05:36:48;;;;;;;;;4.50;2.67;;;;;3.91;49.94;101653.25;2051887;28;2740922;-74
2023/02/26 05:38:01;;;;;;;;;1.17;1.17;;;;;3.91;49.48;101652.34;2053658;27;2737766;-74
2023/02/26 05:39:14;;;;;;;;;6.33;4.00;;;;;3.90;50.26;101653.25;2050141;28;2744026;-74
2023/02/26 05:40:28;;;;;;;;;5.33;4.00;;;;;3.89;50.31;101648.88;2051268;28;2750334;-74
2023/02/26 05:41:41;;;;;;;;;6.00;4.00;;;;;3.90;49.93;101648.03;2051471;28;2745065;-74
2023/02/26 05:42:54;;;;;;;;;4.00;3.00;;;;;3.91;50.16;101652.34;2052853;28;2740886;-74
2023/02/26 05:44:08;;;;;;;;;3.83;3.00;;;;;3.92;49.93;101656.72;2044788;27;2746122;-74
2023/02/26 05:45:21;;;;;;;;;6.83;4.00;;;;;3.93;50.45;101651.53;2050745;28;2755509;-74
2023/02/26 05:46:34;;;;;;;;;6.67;4.33;;;;;3.95;50.35;101656.75;2052059;28;2748185;-74
2023/02/26 05:47:47;;;;;;;;;6.83;5.00;;;;;3.97;50.18;101654.16;2049205;28;2743586;-74
2023/02/26 05:49:00;;;;;;;;;6.50;4.33;;;;;3.97;50.43;101651.56;2048530;28;2754478;-74
2023/02/26 05:50:14;;;;;;;;;4.67;4.33;;;;;3.97;50.06;101660.25;2049244;28;2746090;-74
2023/02/26 05:51:28;;;;;;;;;4.83;4.83;;;;;3.96;50.19;101650.69;2052646;28;2749687;-74
2023/02/26 05:52:38;;;;;;;;;10.00;6.67;;;;;3.96;49.66;101661.09;2039428;28;1825348;-74
2023/02/26 05:53:50;;;;;;;;;8.00;5.00;;;;;3.95;49.96;101659.34;2026431;27;2750724;-74
2023/02/26 05:55:04;;;;;;;;;8.00;6.67;;;;;3.95;49.60;101659.34;2023106;28;2746090;-74
2023/02/26 05:56:17;;;;;;;;;5.50;4.50;;;;;3.96;49.89;101666.28;2050817;28;2744008;-74
2023/02/26 05:57:27;;;;;;;;;10.33;3.00;;;;;3.97;50.30;101662.84;2026008;27;2782572;-74
2023/02/26 05:58:38;;;;;;;;;4.00;4.00;;;;;3.98;49.80;101666.28;2046901;28;2754978;-74
2023/02/26 05:59:49;;;;;;;;;3.00;2.67;;;;;3.99;50.26;101670.66;2000904;28;2739825;-74
2023/02/26 06:01:01;;;;;;;;;4.00;2.75;;;;;3.98;49.94;101659.38;2050221;28;2737777;-74